Startpagina
METAR-TAF:

METAR-TAF

Vliegvelden :

Córdoba, Argentinië

breedte: 31-19S, lengte: 064-13W, hoogte: 484 m

Actueel weer

Dit bericht is 1 uur en het 7 minuten geleden gemaakt, om 07:00 UTC
Wind 10 kt uit het zuidzuidwesten
Temperatuur 20°C
Vochtigheid 37%
Druk 1008 hPa
Zicht 10 km of meer
geen wolken onder 1500 m en geen cumulonimbus

METAR: SACO 230700Z 21010KT CAVOK 20/05 Q1008 NOSIG

Tijdstip: 05:07 (08:07 UTC)

Verwachting

Dit bericht is 3 uur en het 7 minuten geleden gemaakt, om 05:00 UTC
Verwachting geldig van 23 om 06 UTC tot 24 om 06 UTC
Wind 15 kt uit het zuidzuidwesten
Zicht 10 km of meer
Gebroken wolken op 3000 ft
Wijzigt naar
van 23 om 16 UTC tot 23 om 18 UTC
Wind 10 kt uit het zuidzuidoosten
Zicht: 8000 m
Gebroken wolken op 2500 ft

TAF: SACO 230500Z 2306/2406 20015KT 9999 BKN030 TX26/2318Z TN17/2310Z BECMG 2316/2318 16010KT 8000 BKN025

Waarnemingen en weersverwachtingen van meer dan 4000 vliegvelden (METAR en TAF).

De beschikbare stations zijn de gele en rode punten op de kaart.

Ga met uw muis naar het station om de naam te zien.

Klik dan om waarnemingen en weersverwachtingen te zien.

kaart wijzigen: klik op de groene knoppen met een zwart kruis om in te zoomen, op de groene knop met een streepje om uit te zoomen of op de groene pijlen voor aangrenzende kaarten.


METAR-TAF: